Time;durP1;ratioP1;P1;durP2;ratioP2;P2;SDS_P1;SDS_P2;PMS_P1;PMS_P2;Temp;Humidity;BMP_temperature;BMP_pressure;BME280_temperature;BME280_humidity;BME280_pressure;Samples;Min_cycle;Max_cycle;Signal;HPM_P1;HPM_P2
2022/01/01 00:01:59;;;;;;;;;;;;;;;;;;5073109;28;950;-63
2022/01/01 00:04:24;;;;;;;;;;;;;;;;;;5074474;28;767;-62
2022/01/01 00:06:49;;;;;;;;;;;;;;;;;;5073340;28;1218;-63
2022/01/01 00:09:15;;;;;;;;;;;;;;;;;;5074514;28;944;-63
2022/01/01 00:11:41;;;;;;;;;;;;;;;;;;5074387;28;1148;-63
2022/01/01 00:14:06;;;;;;;;;;;;;;;;;;5074347;28;833;-63
2022/01/01 00:16:32;;;;;;;;;;;;;;;;;;5074390;28;1902;-62
2022/01/01 00:18:57;;;;;;;;;;;;;;;;;;5074605;28;833;-63
2022/01/01 00:21:22;;;;;;;;;;;;;;;;;;5073845;28;836;-64
2022/01/01 00:23:48;;;;;;;;;;;;;;;;;;5074631;28;923;-63
2022/01/01 00:26:14;;;;;;;;;;;;;;;;;;5073347;28;1325;-63
2022/01/01 00:28:40;;;;;;;;;;;;;;;;;;5073317;28;939;-63
2022/01/01 00:31:07;;;;;;;;;;;;;;;;;;5072652;28;825;-62
2022/01/01 00:33:32;;;;;;;;;;;;;;;;;;5074177;28;849;-63
2022/01/01 00:35:57;;;;;;;;;;;;;;;;;;5074588;28;1893;-63
2022/01/01 00:38:23;;;;;;;;;;;;;;;;;;5074574;28;789;-63
2022/01/01 00:40:48;;;;;;;;;;;;;;;;;;5074683;28;1047;-62
2022/01/01 00:43:14;;;;;;;;;;;;;;;;;;5073191;28;848;-63
2022/01/01 00:45:39;;;;;;;;;;;;;;;;;;5073852;28;1313;-63
2022/01/01 00:48:05;;;;;;;;;;;;;;;;;;5074062;28;880;-63
2022/01/01 00:50:30;;;;;;;;;;;;;;;;;;5073635;28;1050;-63
2022/01/01 00:52:55;;;;;;;;;;;;;;;;;;5073586;28;876;-64
2022/01/01 00:55:20;;;;;;;;;;;;;;;;;;5073485;28;1910;-64
2022/01/01 00:57:47;;;;;;;;;;;;;;;;;;5074414;28;876;-63
2022/01/01 01:00:12;;;;;;;;;;;;;;;;;;5073560;28;797;-63
2022/01/01 01:02:38;;;;;;;;;;;;;;;;;;5073726;28;967;-63
2022/01/01 01:05:03;;;;;;;;;;;;;;;;;;5073446;28;817;-63
2022/01/01 01:07:28;;;;;;;;;;;;;;;;;;5073499;28;809;-64
2022/01/01 01:09:54;;;;;;;;;;;;;;;;;;5073773;28;782;-63
2022/01/01 01:12:24;;;;;;;;;;;;;;;;;;5073208;28;884;-63
2022/01/01 01:14:51;;;;;;;;;;;;;;;;;;5074015;28;876;-63
2022/01/01 01:17:17;;;;;;;;;;;;;;;;;;5073771;28;1906;-64
2022/01/01 01:19:42;;;;;;;;;;;;;;;;;;5074386;28;935;-63
2022/01/01 01:22:07;;;;;;;;;;;;;;;;;;5073760;28;817;-63
2022/01/01 01:24:33;;;;;;;;;;;;;;;;;;5073709;28;999;-63
2022/01/01 01:27:02;;;;;;;;;;;;;;;;;;5073674;28;924;-63
2022/01/01 01:29:29;;;;;;;;;;;;;;;;;;5073343;28;947;-63
2022/01/01 01:31:54;;;;;;;;;;;;;;;;;;5072401;28;924;-64
2022/01/01 01:34:19;;;;;;;;;;;;;;;;;;5071947;28;869;-63
2022/01/01 01:36:45;;;;;;;;;;;;;;;;;;5073636;28;1902;-63
2022/01/01 01:39:10;;;;;;;;;;;;;;;;;;5071659;28;888;-63
2022/01/01 01:41:36;;;;;;;;;;;;;;;;;;5073032;28;852;-63
2022/01/01 01:44:03;;;;;;;;;;;;;;;;;;5073600;28;848;-63
2022/01/01 01:46:28;;;;;;;;;;;;;;;;;;5072548;28;1038;-63
2022/01/01 01:48:54;;;;;;;;;;;;;;;;;;5073132;28;920;-63
2022/01/01 01:51:19;;;;;;;;;;;;;;;;;;5071525;28;821;-63
2022/01/01 01:53:45;;;;;;;;;;;;;;;;;;5073683;28;836;-63
2022/01/01 01:56:10;;;;;;;;;;;;;;;;;;5071582;28;1984;-63
2022/01/01 01:58:35;;;;;;;;;;;;;;;;;;5070905;28;1155;-63
2022/01/01 02:03:44;;;;;;;;;;;;;;;;;;5071438;28;1004;-63
2022/01/01 02:06:10;;;;;;;;;;;;;;;;;;5069877;28;1065;-63
2022/01/01 02:08:35;;;;;;;;;;;;;;;;;;5071170;28;841;-63
2022/01/01 02:11:02;;;;;;;;;;;;;;;;;;5072690;28;896;-63
2022/01/01 02:13:45;;;;;;;;;;;;;;;;;;5072369;28;813;-63
2022/01/01 02:18:47;;;;;;;;;;;;;;;;;;5072719;28;737;-63
2022/01/01 02:21:12;;;;;;;;;;;;;;;;;;5072184;28;833;-64
2022/01/01 02:23:42;;;;;;;;;;;;;;;;;;5072207;28;1115;-64
2022/01/01 02:26:11;;;;;;;;;;;;;;;;;;5070971;28;882;-64
2022/01/01 02:28:37;;;;;;;;;;;;;;;;;;5072162;28;872;-63
2022/01/01 02:31:02;;;;;;;;;;;;;;;;;;5072683;28;1010;-63
2022/01/01 02:33:28;;;;;;;;;;;;;;;;;;5072032;28;774;-63
2022/01/01 02:35:53;;;;;;;;;;;;;;;;;;5072294;28;1910;-63
2022/01/01 02:38:18;;;;;;;;;;;;;;;;;;5070313;28;1170;-63
2022/01/01 02:40:44;;;;;;;;;;;;;;;;;;5070868;28;984;-63
2022/01/01 02:43:09;;;;;;;;;;;;;;;;;;5070955;28;908;-64
2022/01/01 02:45:34;;;;;;;;;;;;;;;;;;5071503;28;1026;-64
2022/01/01 02:48:01;;;;;;;;;;;;;;;;;;5072263;28;1107;-63
2022/01/01 02:50:26;;;;;;;;;;;;;;;;;;5071321;28;888;-63
2022/01/01 02:52:52;;;;;;;;;;;;;;;;;;5071773;28;1035;-63
2022/01/01 02:55:17;;;;;;;;;;;;;;;;;;5072130;28;824;-63
2022/01/01 02:57:42;;;;;;;;;;;;;;;;;;5071856;28;1909;-63
2022/01/01 03:00:08;;;;;;;;;;;;;;;;;;5070893;28;897;-63
2022/01/01 03:02:33;;;;;;;;;;;;;;;;;;5071515;28;828;-63
2022/01/01 03:04:58;;;;;;;;;;;;;;;;;;5072082;28;881;-63
2022/01/01 03:07:24;;;;;;;;;;;;;;;;;;5070303;28;884;-63
2022/01/01 03:09:49;;;;;;;;;;;;;;;;;;5072331;28;833;-63
2022/01/01 03:12:15;;;;;;;;;;;;;;;;;;5072562;28;1034;-63
2022/01/01 03:14:40;;;;;;;;;;;;;;;;;;5072114;28;943;-63
2022/01/01 03:17:06;;;;;;;;;;;;;;;;;;5071533;28;1898;-63
2022/01/01 03:19:31;;;;;;;;;;;;;;;;;;5072223;28;863;-64
2022/01/01 03:21:57;;;;;;;;;;;;;;;;;;5073121;28;930;-63
2022/01/01 03:24:22;;;;;;;;;;;;;;;;;;5071638;28;829;-63
2022/01/01 03:26:47;;;;;;;;;;;;;;;;;;5072475;28;1145;-63
2022/01/01 03:29:13;;;;;;;;;;;;;;;;;;5072125;28;825;-63
2022/01/01 03:31:38;;;;;;;;;;;;;;;;;;5071357;28;848;-63
2022/01/01 03:34:04;;;;;;;;;;;;;;;;;;5072495;28;1045;-63
2022/01/01 03:36:29;;;;;;;;;;;;;;;;;;5071587;28;1960;-63
2022/01/01 03:38:55;;;;;;;;;;;;;;;;;;5072194;28;991;-63
2022/01/01 03:41:20;;;;;;;;;;;;;;;;;;5069756;28;908;-63
2022/01/01 03:43:46;;;;;;;;;;;;;;;;;;5070408;28;1076;-63
2022/01/01 03:46:12;;;;;;;;;;;;;;;;;;5071498;28;1045;-63
2022/01/01 03:48:37;;;;;;;;;;;;;;;;;;5070614;28;927;-63
2022/01/01 03:51:02;;;;;;;;;;;;;;;;;;5071360;28;1014;-63
2022/01/01 03:53:27;;;;;;;;;;;;;;;;;;5070892;28;991;-63
2022/01/01 03:55:53;;;;;;;;;;;;;;;;;;5069658;28;1918;-63
2022/01/01 03:58:18;;;;;;;;;;;;;;;;;;5071241;28;867;-63
2022/01/01 04:00:44;;;;;;;;;;;;;;;;;;5071194;28;734;-63
2022/01/01 04:03:10;;;;;;;;;;;;;;;;;;5070967;28;824;-63
2022/01/01 04:05:36;;;;;;;;;;;;;;;;;;5070400;28;1014;-63
2022/01/01 04:08:02;;;;;;;;;;;;;;;;;;5070694;28;872;-63
2022/01/01 04:10:30;;;;;;;;;;;;;;;;;;5069910;28;995;-63
2022/01/01 04:12:56;;;;;;;;;;;;;;;;;;5070210;28;912;-63
2022/01/01 04:15:21;;;;;;;;;;;;;;;;;;5070266;28;951;-64
2022/01/01 04:17:47;;;;;;;;;;;;;;;;;;5070382;28;1906;-63
2022/01/01 04:20:12;;;;;;;;;;;;;;;;;;5070852;28;920;-63
2022/01/01 04:22:37;;;;;;;;;;;;;;;;;;5070120;28;841;-63
2022/01/01 04:25:03;;;;;;;;;;;;;;;;;;5070597;28;832;-63
2022/01/01 04:27:28;;;;;;;;;;;;;;;;;;5069883;28;746;-63
2022/01/01 04:29:53;;;;;;;;;;;;;;;;;;5073827;28;813;-63
2022/01/01 04:32:19;;;;;;;;;;;;;;;;;;5072683;28;860;-62
2022/01/01 04:34:45;;;;;;;;;;;;;;;;;;5074156;28;907;-63
2022/01/01 04:37:15;;;;;;;;;;;;;;;;;;5074198;28;1957;-63
2022/01/01 04:39:41;;;;;;;;;;;;;;;;;;5073290;28;913;-63
2022/01/01 04:42:06;;;;;;;;;;;;;;;;;;5074289;28;873;-63
2022/01/01 04:44:32;;;;;;;;;;;;;;;;;;5074018;28;777;-63
2022/01/01 04:46:57;;;;;;;;;;;;;;;;;;5073874;28;1104;-62
2022/01/01 04:49:22;;;;;;;;;;;;;;;;;;5073665;28;840;-63
2022/01/01 04:51:48;;;;;;;;;;;;;;;;;;5073792;28;832;-63
2022/01/01 04:54:15;;;;;;;;;;;;;;;;;;5072577;28;912;-63
2022/01/01 06:00:13;;;;;;;;;;;;;;;;;;5084031;28;1665;-63
2022/01/01 06:02:41;;;;;;;;;;;;;;;;;;5093215;28;809;-63
2022/01/01 06:05:07;;;;;;;;;;;;;;;;;;5093529;28;916;-63
2022/01/01 06:07:32;;;;;;;;;;;;;;;;;;5093283;28;758;-63
2022/01/01 06:09:57;;;;;;;;;;;;;;;;;;5093357;28;912;-63
2022/01/01 06:12:23;;;;;;;;;;;;;;;;;;5093626;28;892;-63
2022/01/01 06:14:48;;;;;;;;;;;;;;;;;;5093604;28;1192;-64
2022/01/01 06:17:14;;;;;;;;;;;;;;;;;;5093242;28;1910;-63
2022/01/01 06:19:39;;;;;;;;;;;;;;;;;;5093262;28;821;-63
2022/01/01 06:22:04;;;;;;;;;;;;;;;;;;5093272;28;900;-63
2022/01/01 06:24:29;;;;;;;;;;;;;;;;;;5074668;28;1056;-63
2022/01/01 06:26:55;;;;;;;;;;;;;;;;;;5093270;28;619;-63
2022/01/01 06:29:20;;;;;;;;;;;;;;;;;;5093166;28;808;-63
2022/01/01 06:31:45;;;;;;;;;;;;;;;;;;5093087;28;840;-63
2022/01/01 06:34:11;;;;;;;;;;;;;;;;;;5074264;28;951;-63
2022/01/01 06:36:36;;;;;;;;;;;;;;;;;;5074419;28;1910;-63
2022/01/01 06:39:02;;;;;;;;;;;;;;;;;;5092842;28;818;-63
2022/01/01 06:41:27;;;;;;;;;;;;;;;;;;5093188;28;861;-63
2022/01/01 06:43:53;;;;;;;;;;;;;;;;;;5092698;28;888;-63
2022/01/01 06:46:18;;;;;;;;;;;;;;;;;;5074681;28;1055;-63
2022/01/01 06:48:44;;;;;;;;;;;;;;;;;;5074642;28;880;-64
2022/01/01 06:51:09;;;;;;;;;;;;;;;;;;5073713;28;741;-63
2022/01/01 06:53:35;;;;;;;;;;;;;;;;;;5092659;28;891;-63
2022/01/01 06:56:05;;;;;;;;;;;;;;;;;;5092745;28;1960;-63
2022/01/01 06:58:30;;;;;;;;;;;;;;;;;;5092465;28;870;-63
2022/01/01 07:00:56;;;;;;;;;;;;;;;;;;5098204;28;1186;-63
2022/01/01 07:03:22;;;;;;;;;;;;;;;;;;5112726;28;833;-63
2022/01/01 07:05:48;;;;;;;;;;;;;;;;;;5111578;28;849;-63
2022/01/01 07:08:13;;;;;;;;;;;;;;;;;;5111882;28;1203;-63
2022/01/01 07:10:39;;;;;;;;;;;;;;;;;;5112922;28;848;-63
2022/01/01 07:13:04;;;;;;;;;;;;;;;;;;5112639;28;1057;-63
2022/01/01 07:15:29;;;;;;;;;;;;;;;;;;5112740;28;859;-63
2022/01/01 07:17:55;;;;;;;;;;;;;;;;;;5112479;28;1964;-63
2022/01/01 07:20:20;;;;;;;;;;;;;;;;;;5112648;28;832;-63
2022/01/01 07:22:45;;;;;;;;;;;;;;;;;;5111125;28;828;-64
2022/01/01 07:25:11;;;;;;;;;;;;;;;;;;5112380;28;844;-63
2022/01/01 07:27:37;;;;;;;;;;;;;;;;;;5112606;28;836;-64
2022/01/01 07:30:04;;;;;;;;;;;;;;;;;;5111963;28;745;-64
2022/01/01 07:32:29;;;;;;;;;;;;;;;;;;5112106;28;1076;-64
2022/01/01 07:34:55;;;;;;;;;;;;;;;;;;5112312;28;899;-64
2022/01/01 07:37:20;;;;;;;;;;;;;;;;;;5112337;28;1955;-64
2022/01/01 07:39:45;;;;;;;;;;;;;;;;;;5112430;28;947;-64
2022/01/01 07:42:12;;;;;;;;;;;;;;;;;;5111776;28;939;-63
2022/01/01 07:44:38;;;;;;;;;;;;;;;;;;5111743;28;934;-63
2022/01/01 07:47:03;;;;;;;;;;;;;;;;;;5110728;28;824;-63
2022/01/01 07:49:28;;;;;;;;;;;;;;;;;;5110410;28;1174;-64
2022/01/01 07:51:54;;;;;;;;;;;;;;;;;;5112149;28;931;-63
2022/01/01 07:54:19;;;;;;;;;;;;;;;;;;5110266;28;975;-63
2022/01/01 07:56:44;;;;;;;;;;;;;;;;;;5111743;28;1898;-63
2022/01/01 07:59:09;;;;;;;;;;;;;;;;;;5111885;28;909;-63
2022/01/01 08:01:36;;;;;;;;;;;;;;;;;;5111847;28;1269;-63
2022/01/01 08:04:02;;;;;;;;;;;;;;;;;;5113878;28;876;-63
2022/01/01 08:06:30;;;;;;;;;;;;;;;;;;5116072;28;923;-63
2022/01/01 08:08:56;;;;;;;;;;;;;;;;;;5115670;28;974;-63
2022/01/01 08:11:21;;;;;;;;;;;;;;;;;;5115635;28;844;-63
2022/01/01 08:13:46;;;;;;;;;;;;;;;;;;5114605;28;987;-63
2022/01/01 08:16:11;;;;;;;;;;;;;;;;;;5114163;28;1963;-63
2022/01/01 08:18:37;;;;;;;;;;;;;;;;;;5115748;28;840;-63
2022/01/01 08:21:02;;;;;;;;;;;;;;;;;;5115846;28;868;-63
2022/01/01 08:23:27;;;;;;;;;;;;;;;;;;5113825;28;860;-63
2022/01/01 08:25:52;;;;;;;;;;;;;;;;;;5116021;28;903;-63
2022/01/01 08:28:18;;;;;;;;;;;;;;;;;;5114244;28;845;-63
2022/01/01 08:30:43;;;;;;;;;;;;;;;;;;5115846;28;912;-63
2022/01/01 08:33:08;;;;;;;;;;;;;;;;;;5114330;28;841;-63
2022/01/01 08:35:34;;;;;;;;;;;;;;;;;;5115370;28;817;-63
2022/01/01 08:38:00;;;;;;;;;;;;;;;;;;5115637;28;1971;-63
2022/01/01 08:40:26;;;;;;;;;;;;;;;;;;5113835;28;1242;-63
2022/01/01 08:42:52;;;;;;;;;;;;;;;;;;5115961;28;1066;-63
2022/01/01 08:45:17;;;;;;;;;;;;;;;;;;5115033;28;836;-63
2022/01/01 08:47:42;;;;;;;;;;;;;;;;;;5113844;28;848;-63
2022/01/01 08:50:08;;;;;;;;;;;;;;;;;;5115160;28;924;-63
2022/01/01 08:52:33;;;;;;;;;;;;;;;;;;5113906;28;1209;-63
2022/01/01 08:54:59;;;;;;;;;;;;;;;;;;5113797;28;1143;-63
2022/01/01 08:57:25;;;;;;;;;;;;;;;;;;5115031;28;1901;-63
2022/01/01 08:59:51;;;;;;;;;;;;;;;;;;5114747;28;1266;-64
2022/01/01 09:02:17;;;;;;;;;;;;;;;;;;5114417;28;848;-63
2022/01/01 09:04:42;;;;;;;;;;;;;;;;;;5114948;28;986;-63
2022/01/01 09:07:07;;;;;;;;;;;;;;;;;;5115017;28;1002;-64
2022/01/01 09:09:32;;;;;;;;;;;;;;;;;;5112652;28;1401;-64
2022/01/01 09:11:58;;;;;;;;;;;;;;;;;;5113486;28;808;-64
2022/01/01 09:14:23;;;;;;;;;;;;;;;;;;5113833;28;852;-63
2022/01/01 09:16:49;;;;;;;;;;;;;;;;;;5114881;28;1913;-64
2022/01/01 09:19:14;;;;;;;;;;;;;;;;;;5114559;28;1042;-64
2022/01/01 09:21:39;;;;;;;;;;;;;;;;;;5112839;28;758;-64
2022/01/01 09:24:05;;;;;;;;;;;;;;;;;;5114661;28;840;-64
2022/01/01 09:26:30;;;;;;;;;;;;;;;;;;5114411;28;958;-64
2022/01/01 09:28:55;;;;;;;;;;;;;;;;;;5114426;28;832;-64
2022/01/01 09:31:21;;;;;;;;;;;;;;;;;;5112861;28;906;-64
2022/01/01 09:33:46;;;;;;;;;;;;;;;;;;5114493;28;832;-63
2022/01/01 09:36:17;;;;;;;;;;;;;;;;;;5113011;28;1902;-64
2022/01/01 09:38:43;;;;;;;;;;;;;;;;;;5114174;28;1239;-64
2022/01/01 09:41:09;;;;;;;;;;;;;;;;;;5114267;28;832;-63
2022/01/01 09:43:34;;;;;;;;;;;;;;;;;;5113488;28;829;-63
2022/01/01 09:46:01;;;;;;;;;;;;;;;;;;5112718;28;1182;-64
2022/01/01 09:48:27;;;;;;;;;;;;;;;;;;5112504;28;1569;-64
2022/01/01 09:50:54;;;;;;;;;;;;;;;;;;5114405;28;1068;-64
2022/01/01 09:53:24;;;;;;;;;;;;;;;;;;5113954;28;1040;-63
2022/01/01 09:55:50;;;;;;;;;;;;;;;;;;5114027;28;1962;-64
2022/01/01 09:58:15;;;;;;;;;;;;;;;;;;5113732;28;878;-64
2022/01/01 10:00:41;;;;;;;;;;;;;;;;;;5113253;28;1064;-63
2022/01/01 10:03:10;;;;;;;;;;;;;;;;;;5114257;28;793;-64
2022/01/01 10:05:55;;;;;;;;;;;;;;;;;;5112224;28;669;-64
2022/01/01 10:08:24;;;;;;;;;;;;;;;;;;5112674;28;872;-64
2022/01/01 10:10:50;;;;;;;;;;;;;;;;;;5113875;28;880;-64
2022/01/01 10:13:16;;;;;;;;;;;;;;;;;;5112342;28;1189;-64
2022/01/01 10:15:41;;;;;;;;;;;;;;;;;;5113344;28;1882;-64
2022/01/01 10:18:07;;;;;;;;;;;;;;;;;;5113841;28;844;-64
2022/01/01 10:20:35;;;;;;;;;;;;;;;;;;5113304;28;1010;-63
2022/01/01 10:23:15;;;;;;;;;;;;;;;;;;5112377;28;836;-64
2022/01/01 10:28:24;;;;;;;;;;;;;;;;;;5113606;28;709;-64
2022/01/01 10:30:49;;;;;;;;;;;;;;;;;;5113843;28;860;-64
2022/01/01 10:33:16;;;;;;;;;;;;;;;;;;5113743;28;884;-63
2022/01/01 10:35:46;;;;;;;;;;;;;;;;;;5113201;28;2052;-64
2022/01/01 10:38:15;;;;;;;;;;;;;;;;;;5113663;28;904;-64
2022/01/01 10:40:40;;;;;;;;;;;;;;;;;;5113188;28;892;-63
2022/01/01 10:43:06;;;;;;;;;;;;;;;;;;5113568;28;840;-63
2022/01/01 10:45:39;;;;;;;;;;;;;;;;;;5112945;28;828;-63
2022/01/01 10:48:21;;;;;;;;;;;;;;;;;;5113464;28;852;-63
2022/01/01 10:50:47;;;;;;;;;;;;;;;;;;5113442;27;770;-63
2022/01/01 10:53:22;;;;;;;;;;;;;;;;;;5113457;28;1202;-63
2022/01/01 10:55:50;;;;;;;;;;;;;;;;;;5112929;28;1893;-65
2022/01/01 10:58:16;;;;;;;;;;;;;;;;;;5113741;28;1470;-64
2022/01/01 11:00:42;;;;;;;;;;;;;;;;;;5113001;28;1245;-65
2022/01/01 11:03:15;;;;;;;;;;;;;;;;;;5113651;28;836;-64
2022/01/01 11:05:40;;;;;;;;;;;;;;;;;;5111688;28;852;-64
2022/01/01 11:08:07;;;;;;;;;;;;;;;;;;5113516;28;895;-63
2022/01/01 11:10:32;;;;;;;;;;;;;;;;;;5113115;28;809;-64
2022/01/01 11:12:59;;;;;;;;;;;;;;;;;;5113530;28;852;-63
2022/01/01 11:15:25;;;;;;;;;;;;;;;;;;5112513;28;844;-64
2022/01/01 11:17:50;;;;;;;;;;;;;;;;;;5112666;28;1902;-63
2022/01/01 11:20:16;;;;;;;;;;;;;;;;;;5112973;28;773;-64
2022/01/01 11:22:42;;;;;;;;;;;;;;;;;;5112418;28;915;-64
2022/01/01 11:25:07;;;;;;;;;;;;;;;;;;5094676;28;1265;-63
2022/01/01 11:27:33;;;;;;;;;;;;;;;;;;5110744;28;1317;-64
2022/01/01 11:29:59;;;;;;;;;;;;;;;;;;5111628;28;857;-63
2022/01/01 11:32:37;;;;;;;;;;;;;;;;;;5112738;28;844;-64
2022/01/01 11:35:04;;;;;;;;;;;;;;;;;;5111208;28;1477;-64
2022/01/01 11:37:43;;;;;;;;;;;;;;;;;;5111741;28;1894;-64
2022/01/01 11:40:09;;;;;;;;;;;;;;;;;;5112776;28;801;-64
2022/01/01 11:42:43;;;;;;;;;;;;;;;;;;5112032;28;923;-63
2022/01/01 11:45:08;;;;;;;;;;;;;;;;;;5111081;28;1170;-64
2022/01/01 11:47:33;;;;;;;;;;;;;;;;;;5111885;28;812;-64
2022/01/01 11:50:04;;;;;;;;;;;;;;;;;;5111195;28;991;-64
2022/01/01 11:52:36;;;;;;;;;;;;;;;;;;5111965;28;789;-63
2022/01/01 11:55:04;;;;;;;;;;;;;;;;;;5112378;28;903;-64
2022/01/01 11:57:30;;;;;;;;;;;;;;;;;;5111891;28;1910;-64
2022/01/01 12:00:07;;;;;;;;;;;;;;;;;;5112112;28;1265;-63
2022/01/01 12:02:33;;;;;;;;;;;;;;;;;;5112722;28;1045;-65
2022/01/01 12:05:12;;;;;;;;;;;;;;;;;;5112747;28;880;-65
2022/01/01 12:07:42;;;;;;;;;;;;;;;;;;5111833;28;1058;-64
2022/01/01 12:10:07;;;;;;;;;;;;;;;;;;5111219;28;1210;-64
2022/01/01 12:12:41;;;;;;;;;;;;;;;;;;5110730;28;1327;-63
2022/01/01 12:15:39;;;;;;;;;;;;;;;;;;5112175;28;828;-62
2022/01/01 12:18:06;;;;;;;;;;;;;;;;;;5065963;28;1902;-63
2022/01/01 12:20:31;;;;;;;;;;;;;;;;;;5110094;28;1202;-62
2022/01/01 12:22:57;;;;;;;;;;;;;;;;;;5112189;28;1049;-62
2022/01/01 12:25:24;;;;;;;;;;;;;;;;;;5112262;28;805;-63
2022/01/01 12:27:51;;;;;;;;;;;;;;;;;;5111633;28;808;-62
2022/01/01 12:30:36;;;;;;;;;;;;;;;;;;5111595;28;900;-62
2022/01/01 12:33:02;;;;;;;;;;;;;;;;;;5111435;28;1301;-62
2022/01/01 12:35:42;;;;;;;;;;;;;;;;;;5112022;28;852;-62
2022/01/01 12:38:08;;;;;;;;;;;;;;;;;;5111814;28;1870;-62
2022/01/01 12:40:34;;;;;;;;;;;;;;;;;;5111350;28;966;-62
2022/01/01 12:43:10;;;;;;;;;;;;;;;;;;5111546;28;875;-62
2022/01/01 12:45:37;;;;;;;;;;;;;;;;;;5111510;28;908;-62
2022/01/01 12:48:03;;;;;;;;;;;;;;;;;;5110911;28;749;-63
2022/01/01 12:50:28;;;;;;;;;;;;;;;;;;5113895;28;926;-62
2022/01/01 12:52:54;;;;;;;;;;;;;;;;;;5114729;28;1033;-63
2022/01/01 12:55:23;;;;;;;;;;;;;;;;;;5115550;28;831;-64
2022/01/01 12:57:48;;;;;;;;;;;;;;;;;;5113388;28;2107;-64
2022/01/01 13:00:21;;;;;;;;;;;;;;;;;;5113860;28;1087;-64
2022/01/01 13:02:47;;;;;;;;;;;;;;;;;;5115245;28;840;-64
2022/01/01 13:05:15;;;;;;;;;;;;;;;;;;5115456;28;969;-64
2022/01/01 13:07:40;;;;;;;;;;;;;;;;;;5114999;28;899;-63
2022/01/01 13:10:06;;;;;;;;;;;;;;;;;;5114994;28;1014;-63
2022/01/01 13:12:31;;;;;;;;;;;;;;;;;;5115297;28;939;-63
2022/01/01 13:14:56;;;;;;;;;;;;;;;;;;5113507;28;1531;-63
2022/01/01 13:17:23;;;;;;;;;;;;;;;;;;5113611;28;1921;-64
2022/01/01 13:19:52;;;;;;;;;;;;;;;;;;5114985;28;896;-64
2022/01/01 13:22:27;;;;;;;;;;;;;;;;;;5115197;28;1045;-64
2022/01/01 13:24:55;;;;;;;;;;;;;;;;;;5114789;28;788;-64
2022/01/01 13:27:25;;;;;;;;;;;;;;;;;;5115080;28;825;-63
2022/01/01 13:29:50;;;;;;;;;;;;;;;;;;5114747;28;931;-65
2022/01/01 13:32:16;;;;;;;;;;;;;;;;;;5114852;28;1006;-64
2022/01/01 13:34:47;;;;;;;;;;;;;;;;;;5114646;28;1057;-64
2022/01/01 13:37:18;;;;;;;;;;;;;;;;;;5114484;28;1901;-64
2022/01/01 13:39:44;;;;;;;;;;;;;;;;;;5113103;28;1372;-64
2022/01/01 13:42:15;;;;;;;;;;;;;;;;;;5114627;28;1045;-64
2022/01/01 13:44:42;;;;;;;;;;;;;;;;;;5114434;28;959;-65
2022/01/01 13:47:08;;;;;;;;;;;;;;;;;;5114195;28;1002;-65
2022/01/01 13:49:45;;;;;;;;;;;;;;;;;;5095580;28;1321;-65
2022/01/01 13:52:16;;;;;;;;;;;;;;;;;;5114253;28;927;-65
2022/01/01 13:54:41;;;;;;;;;;;;;;;;;;5114334;28;797;-65
2022/01/01 13:57:08;;;;;;;;;;;;;;;;;;5113679;28;1975;-66
2022/01/01 13:59:34;;;;;;;;;;;;;;;;;;5114276;28;891;-66
2022/01/01 14:02:03;;;;;;;;;;;;;;;;;;5113613;28;828;-66
2022/01/01 14:04:30;;;;;;;;;;;;;;;;;;5112286;28;1875;-67
2022/01/01 14:07:11;;;;;;;;;;;;;;;;;;5112510;28;840;-66
2022/01/01 14:09:36;;;;;;;;;;;;;;;;;;5112364;28;824;-66
2022/01/01 14:12:02;;;;;;;;;;;;;;;;;;5113231;28;825;-66
2022/01/01 14:14:31;;;;;;;;;;;;;;;;;;5113578;28;974;-66
2022/01/01 14:16:57;;;;;;;;;;;;;;;;;;5113533;28;1909;-65
2022/01/01 14:19:23;;;;;;;;;;;;;;;;;;5112328;28;1317;-66
2022/01/01 14:21:53;;;;;;;;;;;;;;;;;;5111946;28;1156;-65
2022/01/01 14:24:20;;;;;;;;;;;;;;;;;;5111895;28;1253;-66
2022/01/01 14:26:46;;;;;;;;;;;;;;;;;;5111849;28;1167;-65
2022/01/01 14:29:12;;;;;;;;;;;;;;;;;;5094530;28;1289;-65
2022/01/01 14:31:37;;;;;;;;;;;;;;;;;;5113337;28;864;-66
2022/01/01 14:34:03;;;;;;;;;;;;;;;;;;5111702;28;804;-66
2022/01/01 14:36:28;;;;;;;;;;;;;;;;;;5112786;28;1905;-66
2022/01/01 14:38:54;;;;;;;;;;;;;;;;;;5113038;28;872;-65
2022/01/01 14:41:19;;;;;;;;;;;;;;;;;;5113321;27;864;-66
2022/01/01 14:43:45;;;;;;;;;;;;;;;;;;5112890;28;938;-65
2022/01/01 14:46:15;;;;;;;;;;;;;;;;;;5111470;28;1262;-65
2022/01/01 14:48:59;;;;;;;;;;;;;;;;;;5112653;28;852;-66
2022/01/01 14:51:35;;;;;;;;;;;;;;;;;;5112985;28;868;-65
2022/01/01 14:54:21;;;;;;;;;;;;;;;;;;5111117;28;907;-66
2022/01/01 14:56:46;;;;;;;;;;;;;;;;;;5112559;28;1898;-65
2022/01/01 14:59:18;;;;;;;;;;;;;;;;;;5112777;28;922;-65
2022/01/01 15:01:48;;;;;;;;;;;;;;;;;;5104689;28;1202;-66
2022/01/01 15:04:15;;;;;;;;;;;;;;;;;;5104126;28;848;-65
2022/01/01 15:06:40;;;;;;;;;;;;;;;;;;5093862;28;986;-64
2022/01/01 15:09:05;;;;;;;;;;;;;;;;;;5111951;28;950;-64
2022/01/01 15:11:31;;;;;;;;;;;;;;;;;;5112624;28;821;-64
2022/01/01 15:13:57;;;;;;;;;;;;;;;;;;5093631;28;1166;-64
2022/01/01 15:16:23;;;;;;;;;;;;;;;;;;5094109;28;1906;-64
2022/01/01 15:18:49;;;;;;;;;;;;;;;;;;5112243;28;769;-64
2022/01/01 15:21:22;;;;;;;;;;;;;;;;;;5112809;28;867;-64
2022/01/01 15:23:55;;;;;;;;;;;;;;;;;;5113018;28;868;-64
2022/01/01 15:26:21;;;;;;;;;;;;;;;;;;5113158;28;899;-64
2022/01/01 15:28:48;;;;;;;;;;;;;;;;;;5112858;28;900;-64
2022/01/01 15:31:24;;;;;;;;;;;;;;;;;;5112615;28;875;-65
2022/01/01 15:33:52;;;;;;;;;;;;;;;;;;5112394;28;900;-64
2022/01/01 15:36:25;;;;;;;;;;;;;;;;;;5112306;28;1893;-64
2022/01/01 15:38:57;;;;;;;;;;;;;;;;;;5112042;28;852;-64
2022/01/01 15:43:49;;;;;;;;;;;;;;;;;;5112205;28;786;-65
2022/01/01 15:46:15;;;;;;;;;;;;;;;;;;5111791;28;809;-65
2022/01/01 15:48:40;;;;;;;;;;;;;;;;;;5093852;28;810;-64
2022/01/01 15:51:06;;;;;;;;;;;;;;;;;;5094274;28;920;-64
2022/01/01 15:53:31;;;;;;;;;;;;;;;;;;5076397;28;1258;-64
2022/01/01 15:55:59;;;;;;;;;;;;;;;;;;5112227;28;1910;-64
2022/01/01 15:58:25;;;;;;;;;;;;;;;;;;5093888;28;1325;-62
2022/01/01 16:00:53;;;;;;;;;;;;;;;;;;5111661;28;1262;-62
2022/01/01 16:03:19;;;;;;;;;;;;;;;;;;5093683;28;1001;-63
2022/01/01 16:05:54;;;;;;;;;;;;;;;;;;5112050;28;809;-63
2022/01/01 16:08:21;;;;;;;;;;;;;;;;;;5093667;28;1278;-63
2022/01/01 16:10:54;;;;;;;;;;;;;;;;;;5111693;28;1054;-63
2022/01/01 16:13:19;;;;;;;;;;;;;;;;;;5093767;28;888;-63
2022/01/01 16:15:57;;;;;;;;;;;;;;;;;;5093387;28;1429;-63
2022/01/01 16:18:33;;;;;;;;;;;;;;;;;;5093513;28;1194;-64
2022/01/01 16:20:59;;;;;;;;;;;;;;;;;;5111291;28;828;-63
2022/01/01 16:23:25;;;;;;;;;;;;;;;;;;5093245;28;1161;-62
2022/01/01 16:25:51;;;;;;;;;;;;;;;;;;5115167;28;955;-62
2022/01/01 16:28:17;;;;;;;;;;;;;;;;;;5115511;28;809;-63
2022/01/01 16:30:42;;;;;;;;;;;;;;;;;;5115245;28;879;-62
2022/01/01 16:33:12;;;;;;;;;;;;;;;;;;5097067;28;750;-62
2022/01/01 16:35:37;;;;;;;;;;;;;;;;;;5116035;28;832;-63
2022/01/01 16:38:07;;;;;;;;;;;;;;;;;;5097369;28;1906;-62
2022/01/01 16:40:40;;;;;;;;;;;;;;;;;;5097158;28;1154;-62
2022/01/01 16:43:08;;;;;;;;;;;;;;;;;;5115641;28;903;-63
2022/01/01 16:45:43;;;;;;;;;;;;;;;;;;5115896;28;1089;-62
2022/01/01 16:48:19;;;;;;;;;;;;;;;;;;5115750;28;927;-62
2022/01/01 16:50:46;;;;;;;;;;;;;;;;;;5115857;28;801;-62
2022/01/01 16:53:12;;;;;;;;;;;;;;;;;;5115468;28;994;-63
2022/01/01 16:55:38;;;;;;;;;;;;;;;;;;5115934;28;825;-63
2022/01/01 16:58:05;;;;;;;;;;;;;;;;;;5115278;28;1906;-63
2022/01/01 17:00:31;;;;;;;;;;;;;;;;;;5114850;28;1224;-63
2022/01/01 17:02:59;;;;;;;;;;;;;;;;;;5115221;28;864;-63
2022/01/01 17:05:25;;;;;;;;;;;;;;;;;;5115273;28;978;-63
2022/01/01 17:07:50;;;;;;;;;;;;;;;;;;5115298;28;950;-63
2022/01/01 17:10:16;;;;;;;;;;;;;;;;;;5114708;28;839;-63
2022/01/01 17:12:42;;;;;;;;;;;;;;;;;;5096506;28;1215;-63
2022/01/01 17:15:08;;;;;;;;;;;;;;;;;;5114927;28;896;-63
2022/01/01 17:17:53;;;;;;;;;;;;;;;;;;5115173;28;1966;-63
2022/01/01 17:20:25;;;;;;;;;;;;;;;;;;5096641;28;965;-63
2022/01/01 17:22:56;;;;;;;;;;;;;;;;;;5115074;28;998;-63
2022/01/01 17:25:26;;;;;;;;;;;;;;;;;;5114815;28;855;-63
2022/01/01 17:28:12;;;;;;;;;;;;;;;;;;5115034;28;836;-63
2022/01/01 17:30:41;;;;;;;;;;;;;;;;;;5114736;28;845;-63
2022/01/01 17:33:23;;;;;;;;;;;;;;;;;;5114280;28;879;-64
2022/01/01 17:41:48;;;;;;;;;;;;;;;;;;5114188;28;787;-67
2022/01/01 17:44:13;;;;;;;;;;;;;;;;;;5114261;28;915;-63
2022/01/01 17:46:39;;;;;;;;;;;;;;;;;;5095991;28;1419;-63
2022/01/01 17:49:06;;;;;;;;;;;;;;;;;;5113878;28;939;-64
2022/01/01 17:51:34;;;;;;;;;;;;;;;;;;5095435;28;818;-64
2022/01/01 17:53:59;;;;;;;;;;;;;;;;;;5114271;28;860;-64
2022/01/01 17:56:25;;;;;;;;;;;;;;;;;;5113905;28;1969;-64
2022/01/01 17:58:51;;;;;;;;;;;;;;;;;;5114578;28;907;-64
2022/01/01 18:01:16;;;;;;;;;;;;;;;;;;5095081;28;1169;-64
2022/01/01 18:03:42;;;;;;;;;;;;;;;;;;5113865;28;896;-64
2022/01/01 18:06:09;;;;;;;;;;;;;;;;;;5113778;28;837;-64
2022/01/01 18:08:36;;;;;;;;;;;;;;;;;;5113993;28;915;-63
2022/01/01 18:11:19;;;;;;;;;;;;;;;;;;5113998;28;797;-63
2022/01/01 18:13:46;;;;;;;;;;;;;;;;;;5096114;28;875;-62
2022/01/01 18:16:12;;;;;;;;;;;;;;;;;;5113656;28;1910;-63
2022/01/01 18:18:48;;;;;;;;;;;;;;;;;;5113572;28;766;-63
2022/01/01 18:21:14;;;;;;;;;;;;;;;;;;5113683;28;860;-63
2022/01/01 18:23:43;;;;;;;;;;;;;;;;;;5114198;28;919;-63
2022/01/01 18:26:09;;;;;;;;;;;;;;;;;;5113527;28;890;-63
2022/01/01 18:28:34;;;;;;;;;;;;;;;;;;5114223;28;816;-63
2022/01/01 18:31:07;;;;;;;;;;;;;;;;;;5113634;28;847;-63
2022/01/01 18:33:33;;;;;;;;;;;;;;;;;;5113638;28;899;-63
2022/01/01 18:35:58;;;;;;;;;;;;;;;;;;5094927;28;1210;-64